Orneville Township, Maine
Current Conditions -  °F | °C
As of 8:53 AM on Monday 20 Oct 2014 (Local Time) from KMLT Reporting Station
Overcast Overcast  
Wind Chill: 33°   Ceiling: 3300
Heat Index: 40°   Visibility: 10mi
Dew Point: 26°   Wind: 12mph
Humidity: 58%   Direction: 300°WNW
Pressure: 29.88"   Gusts: 21mph
Location:  45.4158°N, 68.8178°W
Report Text: KMLT 201253Z AUTO 30010G18KT 10SM OVC033 04/M03 A2988 RMK AO2 SLP127 T00441033
Loading
Personal Weather Stations






























Interactive Weather Map
Tropical Storm Tracking
New forecast layout! Learn more

10-Day Weather Forecast

Advertisements
Track Severe Weather on mobile